createdAt,value
2023-01-17T00:03:03.253Z,3.40
2023-01-17T00:06:24.135Z,2.97
2023-01-17T00:09:44.486Z,3.57
2023-01-17T00:12:55.553Z,4.40
2023-01-17T00:15:58.178Z,3.33
2023-01-17T00:19:19.795Z,3.73
2023-01-17T00:22:37.992Z,3.30
2023-01-17T00:26:01.221Z,3.43
2023-01-17T00:29:03.572Z,4.53
2023-01-17T00:32:05.401Z,3.77
2023-01-17T00:35:11.900Z,6.00
2023-01-17T00:38:16.554Z,3.93
2023-01-17T00:41:20.372Z,2.63
2023-01-17T00:44:46.717Z,4.33
2023-01-17T00:48:06.808Z,6.07
2023-01-17T00:51:28.141Z,2.53
2023-01-17T00:54:48.389Z,7.67
2023-01-17T00:58:09.824Z,5.03
2023-01-17T01:01:30.355Z,2.30
2023-01-17T01:04:53.621Z,5.37
2023-01-17T01:08:15.483Z,6.20
2023-01-17T01:11:38.460Z,4.53
2023-01-17T01:15:04.679Z,3.90
2023-01-17T01:18:31.121Z,6.03
2023-01-17T01:21:51.761Z,2.20
2023-01-17T01:25:13.408Z,3.73
2023-01-17T01:28:33.525Z,2.63
2023-01-17T01:31:56.523Z,4.97
2023-01-17T01:34:59.141Z,3.63
2023-01-17T01:38:03.288Z,5.00
2023-01-17T01:41:07.686Z,4.30
2023-01-17T01:44:43.635Z,3.73
2023-01-17T01:47:47.684Z,3.50
2023-01-17T01:50:53.860Z,2.93
2023-01-17T01:54:01.526Z,4.53
2023-01-17T01:57:09.844Z,4.03
2023-01-17T02:00:17.859Z,5.40
2023-01-17T02:03:24.127Z,3.87
2023-01-17T02:06:31.375Z,3.80
2023-01-17T02:09:34.045Z,3.87
2023-01-17T02:12:38.600Z,4.80
2023-01-17T02:15:50.325Z,5.10
2023-01-17T02:19:01.076Z,4.53
2023-01-17T02:22:28.605Z,4.30
2023-01-17T02:26:19.374Z,2.27
2023-01-17T02:30:04.378Z,7.33
2023-01-17T02:33:23.478Z,4.23
2023-01-17T02:36:39.493Z,3.07
2023-01-17T02:39:49.725Z,4.20
2023-01-17T02:42:59.321Z,6.03
2023-01-17T02:46:02.174Z,4.27
2023-01-17T02:49:06.220Z,4.10
2023-01-17T02:52:37.557Z,6.03
2023-01-17T02:55:52.391Z,7.30
2023-01-17T02:59:08.717Z,3.27
2023-01-17T03:02:20.812Z,4.30
2023-01-17T03:05:33.344Z,4.87
2023-01-17T03:08:36.150Z,7.17
2023-01-17T03:11:38.913Z,2.70
2023-01-17T03:14:41.626Z,3.37
2023-01-17T03:17:50.271Z,4.07
2023-01-17T03:20:54.287Z,3.87
2023-01-17T03:23:57.012Z,4.63
2023-01-17T03:26:59.717Z,5.87
2023-01-17T03:30:03.433Z,6.13
2023-01-17T03:33:06.150Z,5.47
2023-01-17T03:36:13.264Z,4.80
2023-01-17T03:39:15.917Z,5.60
2023-01-17T03:42:18.714Z,4.00
2023-01-17T03:45:21.394Z,5.63
2023-01-17T03:48:24.145Z,4.20
2023-01-17T03:51:28.197Z,6.20
2023-01-17T03:54:30.913Z,6.30
2023-01-17T03:57:33.628Z,2.50
2023-01-17T04:00:36.854Z,6.07
2023-01-17T04:03:39.566Z,4.77
2023-01-17T04:06:43.671Z,3.67
2023-01-17T04:09:46.417Z,4.50
2023-01-17T04:12:49.327Z,5.37
2023-01-17T04:15:52.524Z,3.40
2023-01-17T04:18:55.383Z,10.77
2023-01-17T04:21:59.384Z,4.87
2023-01-17T04:25:08.932Z,5.97
2023-01-17T04:28:12.155Z,5.70
2023-01-17T04:31:16.795Z,4.50
2023-01-17T04:34:19.994Z,6.30
2023-01-17T04:37:26.926Z,7.13
2023-01-17T04:40:29.696Z,4.27
2023-01-17T04:43:43.344Z,6.60
2023-01-17T04:46:46.021Z,9.70
2023-01-17T04:49:48.747Z,5.27
2023-01-17T04:52:52.726Z,4.83
2023-01-17T04:55:55.534Z,8.17
2023-01-17T04:58:58.635Z,5.63
2023-01-17T05:02:01.305Z,4.67
2023-01-17T05:05:04.002Z,6.53
2023-01-17T05:08:07.983Z,8.30
2023-01-17T05:11:10.631Z,4.50
2023-01-17T05:14:13.350Z,4.97
2023-01-17T05:17:16.397Z,10.77
2023-01-17T05:20:19.400Z,5.77
2023-01-17T05:23:23.463Z,5.83
2023-01-17T05:26:26.552Z,5.50
2023-01-17T05:29:29.420Z,3.67
2023-01-17T05:32:32.162Z,5.30
2023-01-17T05:35:34.856Z,7.73
2023-01-17T05:38:39.017Z,5.13
2023-01-17T05:41:44.457Z,6.57
2023-01-17T05:44:47.744Z,7.03
2023-01-17T05:47:52.442Z,5.00
2023-01-17T05:50:55.127Z,5.17
2023-01-17T05:53:59.244Z,8.37
2023-01-17T05:57:02.012Z,6.77
2023-01-17T06:00:05.848Z,8.60
2023-01-17T06:03:08.635Z,6.43
2023-01-17T06:06:11.349Z,10.43
2023-01-17T06:09:15.405Z,7.23
2023-01-17T06:12:18.075Z,7.13
2023-01-17T06:15:20.909Z,5.33
2023-01-17T06:18:23.615Z,9.23
2023-01-17T06:21:26.432Z,6.87
2023-01-17T06:24:30.531Z,6.40
2023-01-17T06:27:33.348Z,5.67
2023-01-17T06:30:36.687Z,6.67
2023-01-17T06:33:39.346Z,5.90
2023-01-17T06:36:44.063Z,4.87
2023-01-17T06:39:48.981Z,4.50
2023-01-17T06:42:52.047Z,4.03
2023-01-17T06:45:56.158Z,3.23
2023-01-17T06:48:58.875Z,5.27
2023-01-17T06:52:02.009Z,5.87
2023-01-17T06:55:07.311Z,9.67
2023-01-17T06:58:10.843Z,17.77
2023-01-17T07:01:14.118Z,13.43
2023-01-17T07:04:17.521Z,18.73
2023-01-17T07:07:20.200Z,31.63
2023-01-17T07:10:24.427Z,24.27
2023-01-17T07:13:27.433Z,18.07
2023-01-17T07:16:30.328Z,10.13
2023-01-17T07:19:33.043Z,8.37
2023-01-17T07:22:37.640Z,7.87
2023-01-17T07:25:41.820Z,4.67
2023-01-17T07:28:44.792Z,10.57
2023-01-17T07:31:49.763Z,16.23
2023-01-17T07:34:52.441Z,13.13
2023-01-17T07:37:55.870Z,17.77
2023-01-17T07:41:00.712Z,10.63
2023-01-17T07:44:03.387Z,11.00
2023-01-17T07:47:06.036Z,11.00
2023-01-17T07:50:10.163Z,12.43
2023-01-17T07:53:12.854Z,9.33
2023-01-17T07:56:16.897Z,8.27
2023-01-17T07:59:19.709Z,9.00
2023-01-17T08:02:24.225Z,8.17
2023-01-17T08:05:27.572Z,8.23
2023-01-17T08:08:30.554Z,8.20
2023-01-17T08:11:34.594Z,11.83
2023-01-17T08:14:37.451Z,13.67
2023-01-17T08:17:40.299Z,5.87
2023-01-17T08:20:44.265Z,6.70
2023-01-17T08:23:48.939Z,5.83
2023-01-17T08:26:54.919Z,7.17
2023-01-17T08:29:57.739Z,6.93
2023-01-17T08:33:01.498Z,8.73
2023-01-17T08:36:04.484Z,15.50
2023-01-17T08:39:07.901Z,19.30
2023-01-17T08:42:11.944Z,20.03
2023-01-17T08:45:15.194Z,18.00
2023-01-17T08:48:20.895Z,14.57
2023-01-17T08:51:24.876Z,18.40
2023-01-17T08:54:28.853Z,11.23
2023-01-17T08:57:40.476Z,12.93
2023-01-17T09:00:43.587Z,9.10
2023-01-17T09:03:46.844Z,9.13
2023-01-17T09:06:57.129Z,7.03
2023-01-17T09:09:59.894Z,8.07
2023-01-17T09:13:07.069Z,7.50
2023-01-17T09:16:10.549Z,7.57
2023-01-17T09:19:13.553Z,12.73
2023-01-17T09:22:17.978Z,9.73
2023-01-17T09:25:23.646Z,15.73
2023-01-17T09:28:28.941Z,18.50
2023-01-17T09:31:40.415Z,22.73
2023-01-17T09:34:43.177Z,17.83
2023-01-17T09:37:46.076Z,15.90
2023-01-17T09:40:49.909Z,17.67
2023-01-17T09:44:09.965Z,15.87
2023-01-17T09:47:19.371Z,12.47
2023-01-17T09:50:32.145Z,14.40
2023-01-17T09:53:37.712Z,13.60
2023-01-17T09:56:47.666Z,13.83
2023-01-17T10:00:03.757Z,15.53
2023-01-17T10:03:42.977Z,19.33
2023-01-17T10:07:05.595Z,21.90
2023-01-17T10:10:34.350Z,16.13
2023-01-17T10:13:49.406Z,15.57
2023-01-17T10:17:06.297Z,15.87
2023-01-17T10:20:20.212Z,16.43
2023-01-17T10:23:45.336Z,15.37
2023-01-17T10:26:51.524Z,18.20
2023-01-17T10:29:54.401Z,9.73
2023-01-17T10:33:02.778Z,6.43
2023-01-17T10:36:20.587Z,5.80
2023-01-17T10:39:25.053Z,5.90
2023-01-17T10:42:35.111Z,10.00
2023-01-17T10:45:43.640Z,11.53
2023-01-17T10:48:50.498Z,7.67
2023-01-17T10:52:08.791Z,7.40
2023-01-17T10:55:32.763Z,9.77
2023-01-17T10:58:35.475Z,8.60
2023-01-17T11:01:38.263Z,7.70
2023-01-17T11:04:45.023Z,10.97
2023-01-17T11:07:58.648Z,7.90
2023-01-17T11:11:05.146Z,3.83
2023-01-17T11:14:17.524Z,3.97
2023-01-17T11:17:20.991Z,9.37
2023-01-17T11:20:34.252Z,67.00
2023-01-17T11:23:37.297Z,6.17
2023-01-17T11:26:49.363Z,7.87
2023-01-17T11:30:04.633Z,3.03
2023-01-17T11:33:34.207Z,1.97
2023-01-17T11:36:38.249Z,3.27
2023-01-17T11:39:44.446Z,3.07
2023-01-17T11:43:19.624Z,3.77
2023-01-17T11:46:22.788Z,5.03
2023-01-17T11:49:30.290Z,1.80
2023-01-17T11:52:39.116Z,4.00
2023-01-17T11:55:55.078Z,4.87
2023-01-17T11:59:29.674Z,7.03
2023-01-17T12:03:07.146Z,4.30
2023-01-17T12:06:20.396Z,2.70
2023-01-17T12:09:38.546Z,4.50
2023-01-17T12:13:09.312Z,2.67
2023-01-17T12:16:28.392Z,1.97
2023-01-17T12:19:54.506Z,2.70
2023-01-17T12:23:14.271Z,3.17
2023-01-17T12:26:28.525Z,4.10
2023-01-17T12:29:44.659Z,2.73
2023-01-17T12:33:07.084Z,2.43
2023-01-17T12:36:17.642Z,5.63
2023-01-17T12:39:26.099Z,2.53
2023-01-17T12:42:36.183Z,2.83
2023-01-17T12:45:44.008Z,4.10
2023-01-17T12:48:47.691Z,2.43
2023-01-17T12:51:54.497Z,4.27
2023-01-17T12:55:02.242Z,4.40
2023-01-17T12:58:11.787Z,6.27
2023-01-17T13:01:23.095Z,4.80
2023-01-17T13:04:30.765Z,2.97
2023-01-17T13:07:44.167Z,4.13
2023-01-17T13:10:51.163Z,5.17
2023-01-17T13:13:57.952Z,6.80
2023-01-17T13:17:03.695Z,5.83
2023-01-17T13:20:18.362Z,5.63
2023-01-17T13:23:30.813Z,3.27
2023-01-17T13:26:50.741Z,3.27
2023-01-17T13:30:08.628Z,3.03
2023-01-17T13:33:36.567Z,3.93
2023-01-17T13:36:52.532Z,5.77
2023-01-17T13:40:19.346Z,3.20
2023-01-17T13:43:26.768Z,4.33
2023-01-17T13:46:32.614Z,3.00
2023-01-17T13:49:44.641Z,7.00
2023-01-17T13:52:50.911Z,4.73
2023-01-17T13:55:59.852Z,6.60
2023-01-17T13:59:27.360Z,6.13
2023-01-17T14:02:39.172Z,6.77
2023-01-17T14:05:49.239Z,9.70
2023-01-17T14:08:52.105Z,10.57
2023-01-17T14:11:59.214Z,3.70
2023-01-17T14:15:03.207Z,3.20
2023-01-17T14:18:32.555Z,10.47
2023-01-17T14:21:36.808Z,5.77
2023-01-17T14:24:59.201Z,5.93
2023-01-17T14:28:04.413Z,8.17
2023-01-17T14:31:11.021Z,6.53
2023-01-17T14:34:22.744Z,3.30
2023-01-17T14:37:42.034Z,5.13
2023-01-17T14:40:53.576Z,2.77
2023-01-17T14:43:59.601Z,2.23
2023-01-17T14:47:03.033Z,16.23
2023-01-17T14:50:22.258Z,23.57
2023-01-17T14:53:28.198Z,9.47
2023-01-17T14:56:32.204Z,7.20
2023-01-17T14:59:34.905Z,6.00
2023-01-17T15:02:42.385Z,13.80
2023-01-17T15:05:50.548Z,8.47
2023-01-17T15:08:54.437Z,28.07
2023-01-17T15:11:58.383Z,33.30
2023-01-17T15:15:02.060Z,47.13
2023-01-17T15:18:27.754Z,24.40
2023-01-17T15:21:35.779Z,32.57
2023-01-17T15:24:44.481Z,11.03
2023-01-17T15:27:47.207Z,12.87
2023-01-17T15:31:05.901Z,9.53
2023-01-17T15:34:12.732Z,14.93
2023-01-17T15:37:30.515Z,17.50
2023-01-17T15:40:33.242Z,15.37
2023-01-17T15:43:36.118Z,23.70
2023-01-17T15:46:43.386Z,22.00
2023-01-17T15:49:52.042Z,15.97
2023-01-17T15:52:57.818Z,12.80
2023-01-17T15:56:01.255Z,13.57
2023-01-17T15:59:31.415Z,15.23
2023-01-17T16:02:38.775Z,16.03
2023-01-17T16:05:44.805Z,10.57
2023-01-17T16:08:53.944Z,10.50
2023-01-17T16:11:56.815Z,21.70
2023-01-17T16:15:11.722Z,15.27
2023-01-17T16:18:18.781Z,33.30
2023-01-17T16:21:24.734Z,22.33
2023-01-17T16:24:29.093Z,24.77
2023-01-17T16:27:31.797Z,29.57
2023-01-17T16:30:34.867Z,29.73
2023-01-17T16:33:37.564Z,17.07
2023-01-17T16:36:40.359Z,21.43
2023-01-17T16:39:44.450Z,20.40
2023-01-17T16:42:47.537Z,24.90
2023-01-17T16:45:54.046Z,37.90
2023-01-17T16:48:57.333Z,21.40
2023-01-17T16:52:00.209Z,16.47
2023-01-17T16:55:04.476Z,19.13
2023-01-17T16:58:07.165Z,27.07
2023-01-17T17:01:11.170Z,27.43
2023-01-17T17:04:13.968Z,23.03
2023-01-17T17:07:16.704Z,21.70
2023-01-17T17:10:25.060Z,30.73
2023-01-17T17:13:28.418Z,32.33
2023-01-17T17:16:32.815Z,26.20
2023-01-17T17:19:35.961Z,28.67
2023-01-17T17:22:38.768Z,17.30
2023-01-17T17:25:42.801Z,25.30
2023-01-17T17:28:45.781Z,23.10
2023-01-17T17:31:48.607Z,36.53
2023-01-17T17:34:51.639Z,38.03
2023-01-17T17:37:56.108Z,54.80
2023-01-17T17:41:07.469Z,38.53
2023-01-17T17:44:10.394Z,49.33
2023-01-17T17:47:13.795Z,36.23
2023-01-17T17:50:17.132Z,37.70
2023-01-17T17:53:21.745Z,37.93
2023-01-17T17:56:25.811Z,37.10
2023-01-17T17:59:29.871Z,24.37
2023-01-17T18:02:32.652Z,36.90
2023-01-17T18:05:35.359Z,29.67
2023-01-17T18:08:38.913Z,36.23
2023-01-17T18:11:44.317Z,38.30
2023-01-17T18:14:47.903Z,22.47
2023-01-17T18:17:50.864Z,20.50
2023-01-17T18:20:53.701Z,15.37
2023-01-17T18:23:59.772Z,17.70
2023-01-17T18:27:03.908Z,18.90
2023-01-17T18:30:08.047Z,17.67
2023-01-17T18:33:10.848Z,20.07
2023-01-17T18:36:14.936Z,23.47
2023-01-17T18:39:19.908Z,25.17
2023-01-17T18:42:24.611Z,27.97
2023-01-17T18:45:27.428Z,25.80
2023-01-17T18:48:30.173Z,23.17
2023-01-17T18:51:34.878Z,17.87
2023-01-17T18:54:37.618Z,19.40
2023-01-17T18:57:41.810Z,20.73
2023-01-17T19:00:44.518Z,25.80
2023-01-17T19:03:49.262Z,28.43
2023-01-17T19:06:51.996Z,22.73
2023-01-17T19:09:54.699Z,20.47
2023-01-17T19:12:58.745Z,25.40
2023-01-17T19:16:02.960Z,20.93
2023-01-17T19:19:08.004Z,34.10
2023-01-17T19:22:10.871Z,36.57
2023-01-17T19:25:13.787Z,31.73
2023-01-17T19:28:17.873Z,35.87
2023-01-17T19:31:23.581Z,25.40
2023-01-17T19:34:26.531Z,27.90
2023-01-17T19:37:29.637Z,32.50
2023-01-17T19:40:32.360Z,26.73
2023-01-17T19:43:36.710Z,23.40
2023-01-17T19:46:39.797Z,20.87
2023-01-17T19:49:44.397Z,23.60
2023-01-17T19:52:47.128Z,27.87
2023-01-17T19:55:49.906Z,26.43
2023-01-17T19:58:54.502Z,24.70
2023-01-17T20:01:57.362Z,24.83
2023-01-17T20:05:00.247Z,20.63
2023-01-17T20:08:03.730Z,23.93
2023-01-17T20:11:07.792Z,24.57
2023-01-17T20:14:15.222Z,33.17
2023-01-17T20:17:17.906Z,38.60
2023-01-17T20:20:22.740Z,44.60
2023-01-17T20:23:32.898Z,38.70
2023-01-17T20:26:36.388Z,32.37
2023-01-17T20:29:40.733Z,29.37
2023-01-17T20:32:43.390Z,34.00
2023-01-17T20:35:46.180Z,32.87
2023-01-17T20:38:49.338Z,52.20
2023-01-17T20:41:52.100Z,54.83
2023-01-17T20:44:56.185Z,47.30
2023-01-17T20:47:59.173Z,54.77
2023-01-17T20:51:06.377Z,79.17
2023-01-17T20:54:13.034Z,53.30
2023-01-17T20:57:15.773Z,45.00
2023-01-17T21:00:23.026Z,41.53
2023-01-17T21:03:28.753Z,34.10
2023-01-17T21:06:31.754Z,33.90
2023-01-17T21:09:34.499Z,23.17
2023-01-17T21:12:40.195Z,31.10
2023-01-17T21:15:46.592Z,23.63
2023-01-17T21:18:50.442Z,20.43
2023-01-17T21:21:53.146Z,35.13
2023-01-17T21:25:03.362Z,42.10
2023-01-17T21:28:09.636Z,36.67
2023-01-17T21:31:38.603Z,37.03
2023-01-17T21:35:03.994Z,28.10
2023-01-17T21:38:06.878Z,29.13
2023-01-17T21:41:09.798Z,25.97
2023-01-17T21:44:27.948Z,26.90
2023-01-17T21:47:32.797Z,24.23
2023-01-17T21:50:39.048Z,27.07
2023-01-17T21:53:44.686Z,28.30
2023-01-17T21:57:07.988Z,22.73
2023-01-17T22:00:14.681Z,25.90
2023-01-17T22:03:27.048Z,24.17
2023-01-17T22:06:35.282Z,29.60
2023-01-17T22:09:37.957Z,22.00
2023-01-17T22:12:40.669Z,19.87
2023-01-17T22:15:43.870Z,26.50
2023-01-17T22:18:48.465Z,26.47
2023-01-17T22:21:51.159Z,28.93
2023-01-17T22:24:53.836Z,26.77
2023-01-17T22:27:57.059Z,26.70
2023-01-17T22:31:06.511Z,30.40
2023-01-17T22:34:19.839Z,43.93
2023-01-17T22:37:24.779Z,31.93
2023-01-17T22:40:27.897Z,26.83
2023-01-17T22:43:30.521Z,32.87
2023-01-17T22:46:35.584Z,33.50
2023-01-17T22:49:39.722Z,28.40
2023-01-17T22:52:44.603Z,24.07
2023-01-17T22:55:47.235Z,22.20
2023-01-17T22:58:53.440Z,27.13
2023-01-17T23:01:59.583Z,27.43
2023-01-17T23:05:04.017Z,33.13
2023-01-17T23:08:08.823Z,22.47
2023-01-17T23:11:40.817Z,19.97
2023-01-17T23:15:02.029Z,22.10
2023-01-17T23:18:22.186Z,27.53
2023-01-17T23:21:58.372Z,21.13
2023-01-17T23:25:02.506Z,23.20
2023-01-17T23:28:23.151Z,19.30
2023-01-17T23:31:25.851Z,24.60
2023-01-17T23:34:31.530Z,33.37
2023-01-17T23:37:55.483Z,33.87
2023-01-17T23:41:20.662Z,29.77
2023-01-17T23:44:27.190Z,22.00
2023-01-17T23:47:29.846Z,22.13
2023-01-17T23:50:32.616Z,21.73
2023-01-17T23:53:37.803Z,16.90
2023-01-17T23:56:42.978Z,23.27
2023-01-17T23:59:48.757Z,20.83
